createdAt,value
2022-12-23T00:00:04.590Z,5.7
2022-12-23T00:01:15.013Z,5.7
2022-12-23T00:02:24.489Z,5.6
2022-12-23T00:03:34.651Z,5.7
2022-12-23T00:04:44.813Z,5.6
2022-12-23T00:05:55.075Z,5.6
2022-12-23T00:07:05.231Z,5.6
2022-12-23T00:08:15.370Z,5.5
2022-12-23T00:09:25.529Z,5.5
2022-12-23T00:10:35.635Z,5.5
2022-12-23T00:11:45.856Z,5.5
2022-12-23T00:12:55.977Z,5.5
2022-12-23T00:14:06.200Z,5.5
2022-12-23T00:15:16.356Z,5.5
2022-12-23T00:16:26.516Z,5.4
2022-12-23T00:17:36.637Z,5.4
2022-12-23T00:18:46.778Z,5.4
2022-12-23T00:19:56.955Z,5.4
2022-12-23T00:21:07.136Z,5.4
2022-12-23T00:22:17.276Z,5.4
2022-12-23T00:23:27.449Z,5.4
2022-12-23T00:24:37.591Z,5.4
2022-12-23T00:25:47.792Z,5.5
2022-12-23T00:26:57.936Z,5.5
2022-12-23T00:28:08.095Z,5.4
2022-12-23T00:29:18.257Z,5.5
2022-12-23T00:30:28.497Z,5.5
2022-12-23T00:31:38.657Z,5.5
2022-12-23T00:32:48.922Z,5.5
2022-12-23T00:33:59.236Z,5.4
2022-12-23T00:35:09.432Z,5.4
2022-12-23T00:36:19.697Z,5.4
2022-12-23T00:37:29.984Z,5.4
2022-12-23T00:38:40.134Z,5.4
2022-12-23T00:39:50.394Z,5.4
2022-12-23T00:41:00.698Z,5.4
2022-12-23T00:42:10.891Z,5.4
2022-12-23T00:43:21.214Z,5.5
2022-12-23T00:44:31.455Z,5.5
2022-12-23T00:45:41.606Z,5.5
2022-12-23T00:46:52.150Z,5.6
2022-12-23T00:48:02.547Z,5.6
2022-12-23T00:49:12.964Z,5.6
2022-12-23T00:50:23.352Z,5.6
2022-12-23T00:51:33.854Z,5.6
2022-12-23T00:52:44.193Z,5.6
2022-12-23T00:53:54.712Z,5.7
2022-12-23T00:55:05.057Z,5.7
2022-12-23T00:56:15.516Z,5.7
2022-12-23T00:57:25.937Z,5.7
2022-12-23T00:58:36.352Z,5.7
2022-12-23T00:59:46.795Z,5.8
2022-12-23T01:00:57.276Z,5.8
2022-12-23T01:03:36.958Z,5.8
2022-12-23T01:04:51.089Z,5.7
2022-12-23T01:06:05.246Z,5.7
2022-12-23T01:07:15.177Z,5.8
2022-12-23T01:08:25.524Z,5.8
2022-12-23T01:09:35.612Z,5.8
2022-12-23T01:11:56.107Z,5.8
2022-12-23T01:13:06.436Z,5.8
2022-12-23T01:14:16.705Z,5.8
2022-12-23T01:15:26.865Z,5.8
2022-12-23T01:16:37.089Z,5.8
2022-12-23T01:17:47.342Z,5.8
2022-12-23T01:18:57.636Z,5.8
2022-12-23T01:20:07.904Z,5.8
2022-12-23T01:21:18.072Z,5.8
2022-12-23T01:22:28.384Z,5.8
2022-12-23T01:23:38.559Z,5.8
2022-12-23T01:24:48.821Z,5.8
2022-12-23T01:25:59.096Z,5.9
2022-12-23T01:27:09.323Z,5.9
2022-12-23T01:28:19.566Z,5.8
2022-12-23T01:29:29.804Z,5.8
2022-12-23T01:30:40.040Z,5.8
2022-12-23T01:31:50.362Z,5.8
2022-12-23T01:33:00.625Z,5.8
2022-12-23T01:34:10.817Z,5.9
2022-12-23T01:35:21.085Z,5.8
2022-12-23T01:36:31.501Z,5.8
2022-12-23T01:37:41.886Z,5.8
2022-12-23T01:38:52.320Z,5.9
2022-12-23T01:40:02.764Z,5.9
2022-12-23T01:41:13.244Z,5.9
2022-12-23T01:42:23.622Z,5.9
2022-12-23T01:43:34.042Z,5.9
2022-12-23T01:44:44.472Z,5.9
2022-12-23T01:45:53.953Z,5.9
2022-12-23T01:47:04.042Z,5.9
2022-12-23T01:48:14.212Z,5.9
2022-12-23T01:49:24.296Z,5.9
2022-12-23T01:50:34.386Z,5.9
2022-12-23T01:52:54.630Z,5.9
2022-12-23T01:54:04.784Z,5.9
2022-12-23T01:55:14.886Z,5.9
2022-12-23T01:56:25.044Z,5.9
2022-12-23T01:57:35.061Z,5.9
2022-12-23T01:58:45.179Z,5.9
2022-12-23T01:59:55.318Z,5.9
2022-12-23T02:01:05.413Z,5.9
2022-12-23T02:02:15.545Z,5.9
2022-12-23T02:03:25.654Z,5.9
2022-12-23T02:04:35.757Z,5.9
2022-12-23T02:05:45.894Z,5.9
2022-12-23T02:06:56.019Z,5.9
2022-12-23T02:08:06.133Z,5.9
2022-12-23T02:09:16.222Z,5.9
2022-12-23T02:10:26.361Z,5.9
2022-12-23T02:11:36.459Z,5.9
2022-12-23T02:12:46.634Z,5.9
2022-12-23T02:13:56.765Z,5.9
2022-12-23T02:15:06.963Z,5.9
2022-12-23T02:16:17.048Z,6
2022-12-23T02:17:27.215Z,5.9
2022-12-23T02:18:37.346Z,6
2022-12-23T02:19:47.533Z,6
2022-12-23T02:20:57.697Z,6
2022-12-23T02:22:07.865Z,6
2022-12-23T02:23:18.017Z,6
2022-12-23T02:24:28.184Z,6
2022-12-23T02:25:38.329Z,6
2022-12-23T02:26:48.568Z,6
2022-12-23T02:27:58.664Z,6
2022-12-23T02:29:08.898Z,6
2022-12-23T02:30:19.083Z,6
2022-12-23T02:31:29.396Z,6
2022-12-23T02:32:39.557Z,6.1
2022-12-23T02:33:49.889Z,6.1
2022-12-23T02:35:00.117Z,6.1
2022-12-23T02:36:10.310Z,6.1
2022-12-23T02:37:20.604Z,6
2022-12-23T02:38:30.844Z,6
2022-12-23T02:39:41.043Z,6
2022-12-23T02:40:51.285Z,6
2022-12-23T02:42:01.538Z,6
2022-12-23T02:43:11.787Z,6
2022-12-23T02:44:22.015Z,6.1
2022-12-23T02:45:32.499Z,6.1
2022-12-23T02:47:09.051Z,6.1
2022-12-23T02:48:19.444Z,6.1
2022-12-23T02:49:29.909Z,6.1
2022-12-23T02:50:40.274Z,6.1
2022-12-23T02:51:50.740Z,6.1
2022-12-23T02:53:01.219Z,6.1
2022-12-23T02:54:11.604Z,6.1
2022-12-23T02:55:22.032Z,6.1
2022-12-23T02:56:32.443Z,6.1
2022-12-23T02:57:42.868Z,6.1
2022-12-23T02:58:53.324Z,6.1
2022-12-23T03:00:03.784Z,6.1
2022-12-23T03:02:43.665Z,6.1
2022-12-23T03:03:57.454Z,6.1
2022-12-23T03:05:07.892Z,6.1
2022-12-23T03:06:18.317Z,6.1
2022-12-23T03:07:28.844Z,6
2022-12-23T03:08:39.175Z,6
2022-12-23T03:09:49.692Z,6.1
2022-12-23T03:11:00.058Z,6.1
2022-12-23T03:12:10.485Z,6.1
2022-12-23T03:13:20.984Z,6.1
2022-12-23T03:14:31.404Z,6.1
2022-12-23T03:15:41.763Z,6.1
2022-12-23T03:16:52.285Z,6.1
2022-12-23T03:18:02.655Z,6.1
2022-12-23T03:19:13.073Z,6.1
2022-12-23T03:20:23.568Z,6.1
2022-12-23T03:21:33.935Z,6.1
2022-12-23T03:22:44.347Z,6.1
2022-12-23T03:23:54.840Z,6.1
2022-12-23T03:25:05.218Z,6.1
2022-12-23T03:26:15.699Z,6.1
2022-12-23T03:27:26.098Z,6.1
2022-12-23T03:28:36.510Z,6.1
2022-12-23T03:29:46.957Z,6
2022-12-23T03:30:57.427Z,6
2022-12-23T03:32:07.884Z,6
2022-12-23T03:34:07.622Z,6
2022-12-23T03:35:18.425Z,6
2022-12-23T03:36:28.184Z,6
2022-12-23T03:37:38.333Z,6
2022-12-23T03:38:48.521Z,6
2022-12-23T03:39:58.769Z,6
2022-12-23T03:41:08.846Z,6
2022-12-23T03:42:19.037Z,6
2022-12-23T03:43:29.218Z,6
2022-12-23T03:44:39.303Z,6
2022-12-23T03:45:49.489Z,6
2022-12-23T03:46:59.660Z,6
2022-12-23T03:48:09.810Z,6
2022-12-23T03:49:19.977Z,6
2022-12-23T03:50:30.137Z,6
2022-12-23T03:51:40.293Z,6
2022-12-23T03:52:50.526Z,6
2022-12-23T03:54:00.619Z,6
2022-12-23T03:55:10.847Z,6
2022-12-23T03:56:20.997Z,6
2022-12-23T03:57:31.115Z,6
2022-12-23T03:58:41.261Z,6.1
2022-12-23T03:59:51.445Z,6
2022-12-23T04:01:01.637Z,6
2022-12-23T04:02:11.796Z,6
2022-12-23T04:03:21.978Z,6
2022-12-23T04:04:32.089Z,6
2022-12-23T04:05:42.329Z,6
2022-12-23T04:06:52.587Z,6
2022-12-23T04:08:02.845Z,6
2022-12-23T04:09:13.094Z,6
2022-12-23T04:10:23.377Z,6
2022-12-23T04:11:33.618Z,6
2022-12-23T04:12:43.804Z,6
2022-12-23T04:13:54.068Z,6.1
2022-12-23T04:15:04.319Z,6.1
2022-12-23T04:16:14.567Z,6.1
2022-12-23T04:17:24.878Z,6.1
2022-12-23T04:18:35.032Z,6.1
2022-12-23T04:19:45.280Z,6.1
2022-12-23T04:20:55.714Z,6.1
2022-12-23T04:22:06.221Z,6.1
2022-12-23T04:23:16.646Z,6.1
2022-12-23T04:24:27.042Z,6.1
2022-12-23T04:25:37.437Z,6.1
2022-12-23T04:26:47.927Z,6.1
2022-12-23T04:27:58.324Z,6.1
2022-12-23T04:29:08.797Z,6.1
2022-12-23T04:30:19.244Z,6.1
2022-12-23T04:31:29.670Z,6.1
2022-12-23T04:32:40.040Z,6.1
2022-12-23T04:33:50.480Z,6.1
2022-12-23T04:35:00.972Z,6.1
2022-12-23T04:37:40.218Z,6.1
2022-12-23T04:38:53.987Z,6
2022-12-23T04:40:04.407Z,6
2022-12-23T04:41:14.973Z,6
2022-12-23T04:42:25.282Z,6
2022-12-23T04:43:35.687Z,6.1
2022-12-23T04:44:46.142Z,6
2022-12-23T04:45:56.618Z,6
2022-12-23T04:47:07.070Z,6
2022-12-23T04:48:17.438Z,6
2022-12-23T04:49:27.898Z,6
2022-12-23T04:50:38.277Z,6
2022-12-23T04:51:48.729Z,6
2022-12-23T04:52:59.224Z,6
2022-12-23T04:54:09.621Z,6
2022-12-23T04:55:20.001Z,6
2022-12-23T04:56:30.562Z,6
2022-12-23T04:57:40.858Z,6
2022-12-23T04:58:51.331Z,6
2022-12-23T05:00:01.769Z,6
2022-12-23T05:01:12.217Z,6
2022-12-23T05:02:22.642Z,6
2022-12-23T05:03:33.128Z,6
2022-12-23T05:04:43.439Z,6
2022-12-23T05:05:53.885Z,6
2022-12-23T05:07:04.383Z,6
2022-12-23T05:09:04.161Z,6
2022-12-23T05:10:13.881Z,6
2022-12-23T05:11:24.124Z,6
2022-12-23T05:12:34.225Z,6
2022-12-23T05:13:44.383Z,6
2022-12-23T05:14:54.541Z,6
2022-12-23T05:16:04.755Z,6
2022-12-23T05:17:14.864Z,6
2022-12-23T05:18:25.124Z,6
2022-12-23T05:19:35.170Z,6
2022-12-23T05:20:45.342Z,6
2022-12-23T05:21:55.638Z,6
2022-12-23T05:23:05.672Z,6
2022-12-23T05:24:15.922Z,6
2022-12-23T05:25:26.002Z,6
2022-12-23T05:26:36.157Z,6
2022-12-23T05:27:46.332Z,6
2022-12-23T05:28:56.509Z,6
2022-12-23T05:30:06.673Z,6
2022-12-23T05:31:16.839Z,6.1
2022-12-23T05:32:27.008Z,6.1
2022-12-23T05:33:37.130Z,6.1
2022-12-23T05:34:47.302Z,6.1
2022-12-23T05:35:57.594Z,6.1
2022-12-23T05:37:07.634Z,6.1
2022-12-23T05:38:17.798Z,6.1
2022-12-23T05:39:28.041Z,6.1
2022-12-23T05:40:38.290Z,6.1
2022-12-23T05:41:48.539Z,6.1
2022-12-23T05:42:58.770Z,6.1
2022-12-23T05:44:09.141Z,6.1
2022-12-23T05:45:19.380Z,6.1
2022-12-23T05:46:29.531Z,6.1
2022-12-23T05:47:39.759Z,6.1
2022-12-23T05:48:50.096Z,6.1
2022-12-23T05:50:00.313Z,6.1
2022-12-23T05:51:10.563Z,6.1
2022-12-23T05:52:20.753Z,6.1
2022-12-23T05:53:31.040Z,6.1
2022-12-23T05:54:41.420Z,6.1
2022-12-23T05:55:51.912Z,6.1
2022-12-23T05:57:02.302Z,6.1
2022-12-23T05:58:12.739Z,6.1
2022-12-23T05:59:23.192Z,6.1
2022-12-23T06:00:33.773Z,6.1
2022-12-23T06:01:44.019Z,6.1
2022-12-23T06:02:54.445Z,6.1
2022-12-23T06:04:04.891Z,6.1
2022-12-23T06:05:15.351Z,6.1
2022-12-23T06:06:24.793Z,6.1
2022-12-23T06:07:34.944Z,6.1
2022-12-23T06:08:45.105Z,6.1
2022-12-23T06:09:55.294Z,6.1
2022-12-23T06:11:05.446Z,6.1
2022-12-23T06:12:15.666Z,6.1
2022-12-23T06:13:25.818Z,6.2
2022-12-23T06:14:35.928Z,6.2
2022-12-23T06:15:46.140Z,6.1
2022-12-23T06:16:56.270Z,6.1
2022-12-23T06:18:06.457Z,6.1
2022-12-23T06:19:16.588Z,6.1
2022-12-23T06:20:26.754Z,6.1
2022-12-23T06:21:36.894Z,6.1
2022-12-23T06:22:47.123Z,6.1
2022-12-23T06:23:57.293Z,6.1
2022-12-23T06:25:07.405Z,6.2
2022-12-23T06:26:17.617Z,6.1
2022-12-23T06:27:27.777Z,6.1
2022-12-23T06:28:37.885Z,6.1
2022-12-23T06:29:48.056Z,6.1
2022-12-23T06:30:58.270Z,6.1
2022-12-23T06:32:08.375Z,6.1
2022-12-23T06:33:18.591Z,6.1
2022-12-23T06:35:38.950Z,6.1
2022-12-23T06:36:49.199Z,6.1
2022-12-23T06:37:59.530Z,6.1
2022-12-23T06:39:09.680Z,6.1
2022-12-23T06:40:19.990Z,6.1
2022-12-23T06:41:30.180Z,6.1
2022-12-23T06:42:40.419Z,6.1
2022-12-23T06:43:50.682Z,6.1
2022-12-23T06:45:00.930Z,6.1
2022-12-23T06:46:11.172Z,6.1
2022-12-23T06:47:21.410Z,6.1
2022-12-23T06:48:31.658Z,6.1
2022-12-23T06:49:41.885Z,6.1
2022-12-23T06:50:52.348Z,6.1
2022-12-23T06:52:02.781Z,6.1
2022-12-23T06:53:13.323Z,6.1
2022-12-23T06:54:23.704Z,6.1
2022-12-23T06:55:34.072Z,6.1
2022-12-23T06:56:44.481Z,6.1
2022-12-23T06:57:54.984Z,6
2022-12-23T06:59:05.358Z,6
2022-12-23T07:00:15.866Z,6
2022-12-23T07:01:26.272Z,6
2022-12-23T07:02:36.640Z,6
2022-12-23T07:03:47.123Z,6
2022-12-23T07:04:57.607Z,6
2022-12-23T07:07:36.885Z,6
2022-12-23T07:08:50.716Z,6
2022-12-23T07:10:01.158Z,6
2022-12-23T07:11:11.547Z,6
2022-12-23T07:12:21.983Z,6
2022-12-23T07:13:32.505Z,6
2022-12-23T07:14:42.820Z,6
2022-12-23T07:15:53.266Z,6
2022-12-23T07:17:03.703Z,6
2022-12-23T07:18:14.158Z,6
2022-12-23T07:19:24.559Z,6
2022-12-23T07:20:34.976Z,6
2022-12-23T07:21:45.423Z,6
2022-12-23T07:22:56.088Z,6
2022-12-23T07:24:06.284Z,6
2022-12-23T07:25:16.707Z,6
2022-12-23T07:26:27.219Z,6
2022-12-23T07:27:37.568Z,6
2022-12-23T07:28:48.109Z,6
2022-12-23T07:29:58.447Z,5.9
2022-12-23T07:31:08.877Z,6
2022-12-23T07:32:19.342Z,6
2022-12-23T07:33:29.816Z,6
2022-12-23T07:34:40.143Z,6
2022-12-23T07:35:50.651Z,6
2022-12-23T07:37:01.021Z,6
2022-12-23T07:39:00.763Z,6
2022-12-23T07:40:10.783Z,6
2022-12-23T07:41:20.991Z,6
2022-12-23T07:42:31.230Z,6
2022-12-23T07:43:41.410Z,6
2022-12-23T07:44:51.675Z,5.9
2022-12-23T07:46:01.923Z,6
2022-12-23T07:47:12.163Z,6
2022-12-23T07:48:22.413Z,6
2022-12-23T07:49:32.706Z,6
2022-12-23T07:50:42.878Z,6
2022-12-23T07:51:53.155Z,6
2022-12-23T07:53:03.442Z,6
2022-12-23T07:54:13.621Z,6
2022-12-23T07:55:23.932Z,5.9
2022-12-23T07:56:34.164Z,6
2022-12-23T07:57:44.354Z,6
2022-12-23T07:58:54.616Z,6
2022-12-23T08:00:04.866Z,5.9
2022-12-23T08:01:15.152Z,6
2022-12-23T08:02:25.366Z,6
2022-12-23T08:03:35.587Z,6
2022-12-23T08:04:45.885Z,6
2022-12-23T08:05:56.075Z,6
2022-12-23T08:07:06.347Z,6
2022-12-23T08:08:16.575Z,6
2022-12-23T08:09:27.056Z,6
2022-12-23T08:10:37.439Z,6
2022-12-23T08:11:47.936Z,6
2022-12-23T08:12:58.363Z,6
2022-12-23T08:14:08.744Z,6
2022-12-23T08:15:19.165Z,6
2022-12-23T08:16:29.644Z,6
2022-12-23T08:17:40.016Z,6
2022-12-23T08:18:50.537Z,6
2022-12-23T08:20:00.904Z,6
2022-12-23T08:21:11.386Z,6.1
2022-12-23T08:22:21.805Z,6.1
2022-12-23T08:23:32.185Z,6
2022-12-23T08:26:11.940Z,6
2022-12-23T08:27:21.763Z,6
2022-12-23T08:28:31.894Z,6
2022-12-23T08:29:42.040Z,6
2022-12-23T08:30:52.220Z,6
2022-12-23T08:32:02.380Z,6.1
2022-12-23T08:33:12.532Z,6.1
2022-12-23T08:34:22.760Z,6.1
2022-12-23T08:35:32.852Z,6.1
2022-12-23T08:36:43.024Z,6.1
2022-12-23T08:37:53.240Z,6.1
2022-12-23T08:39:03.351Z,6.1
2022-12-23T08:40:13.598Z,6.1
2022-12-23T08:41:23.673Z,6.1
2022-12-23T08:42:33.897Z,6.1
2022-12-23T08:43:43.992Z,6.1
2022-12-23T08:44:54.243Z,6.1
2022-12-23T08:46:04.340Z,6.1
2022-12-23T08:47:14.487Z,6.1
2022-12-23T08:48:24.657Z,6.1
2022-12-23T08:50:44.976Z,6.1
2022-12-23T08:51:55.211Z,6.2
2022-12-23T08:53:05.338Z,6.1
2022-12-23T08:54:15.467Z,6.2
2022-12-23T08:55:25.700Z,6.2
2022-12-23T08:56:35.874Z,6.2
2022-12-23T08:57:46.120Z,6.2
2022-12-23T08:58:56.480Z,6.2
2022-12-23T09:00:06.680Z,6.2
2022-12-23T09:01:16.880Z,6.2
2022-12-23T09:02:27.161Z,6.2
2022-12-23T09:03:37.351Z,6.2
2022-12-23T09:04:47.592Z,6.3
2022-12-23T09:05:57.852Z,6.3
2022-12-23T09:07:08.100Z,6.3
2022-12-23T09:08:18.362Z,6.3
2022-12-23T09:09:28.609Z,6.3
2022-12-23T09:10:38.823Z,6.3
2022-12-23T09:11:49.274Z,6.3
2022-12-23T09:12:59.773Z,6.3
2022-12-23T09:14:10.137Z,6.3
2022-12-23T09:15:20.636Z,6.3
2022-12-23T09:16:30.998Z,6.3
2022-12-23T09:17:41.414Z,6.3
2022-12-23T09:18:51.860Z,6.3
2022-12-23T09:20:02.280Z,6.3
2022-12-23T09:21:12.799Z,6.3
2022-12-23T09:22:23.205Z,6.3
2022-12-23T09:23:33.645Z,6.3
2022-12-23T09:24:44.013Z,6.3
2022-12-23T09:25:54.447Z,6.3
2022-12-23T09:28:33.688Z,6.3
2022-12-23T09:29:47.773Z,6.3
2022-12-23T09:31:01.400Z,6.3
2022-12-23T09:32:11.613Z,6.3
2022-12-23T09:33:21.886Z,6.3
2022-12-23T09:34:32.097Z,6.3
2022-12-23T09:35:42.306Z,6.3
2022-12-23T09:36:52.557Z,6.3
2022-12-23T09:38:02.878Z,6.3
2022-12-23T09:39:13.069Z,6.3
2022-12-23T09:40:23.318Z,6.4
2022-12-23T09:41:33.548Z,6.3
2022-12-23T09:42:43.788Z,6.4
2022-12-23T09:43:54.050Z,6.4
2022-12-23T09:45:04.407Z,6.4
2022-12-23T09:46:14.544Z,6.4
2022-12-23T09:47:24.841Z,6.4
2022-12-23T09:48:35.028Z,6.4
2022-12-23T09:49:45.268Z,6.4
2022-12-23T09:50:55.578Z,6.4
2022-12-23T09:52:05.820Z,6.4
2022-12-23T09:53:15.996Z,6.4
2022-12-23T09:54:26.306Z,6.4
2022-12-23T09:55:36.493Z,6.4
2022-12-23T09:56:46.768Z,6.4
2022-12-23T09:57:57.039Z,6.4
2022-12-23T09:59:07.256Z,6.4
2022-12-23T10:00:17.662Z,6.4
2022-12-23T10:01:28.106Z,6.4
2022-12-23T10:02:38.524Z,6.4
2022-12-23T10:03:49.031Z,6.4
2022-12-23T10:04:59.401Z,6.4
2022-12-23T10:06:09.825Z,6.4
2022-12-23T10:07:20.304Z,6.5
2022-12-23T10:08:30.753Z,6.5
2022-12-23T10:09:41.111Z,6.5
2022-12-23T10:10:51.614Z,6.5
2022-12-23T10:12:01.986Z,6.5
2022-12-23T10:13:12.517Z,6.5
2022-12-23T10:14:22.901Z,6.5
2022-12-23T10:17:02.036Z,6.5
2022-12-23T10:18:16.196Z,6.5
2022-12-23T10:19:29.704Z,6.5
2022-12-23T10:20:39.953Z,6.5
2022-12-23T10:21:50.196Z,6.5
2022-12-23T10:23:00.503Z,6.5
2022-12-23T10:24:10.744Z,6.6
2022-12-23T10:25:20.944Z,6.5
2022-12-23T10:26:31.234Z,6.6
2022-12-23T10:27:41.422Z,6.5
2022-12-23T10:28:51.685Z,6.5
2022-12-23T10:30:01.934Z,6.6
2022-12-23T10:31:12.181Z,6.5
2022-12-23T10:32:22.000Z,6.5
2022-12-23T10:33:32.646Z,6.5
2022-12-23T10:34:42.892Z,6.5
2022-12-23T10:35:53.203Z,6.5
2022-12-23T10:37:03.450Z,6.5
2022-12-23T10:38:13.703Z,6.5
2022-12-23T10:39:23.893Z,6.5
2022-12-23T10:40:34.125Z,6.5
2022-12-23T10:41:44.368Z,6.5
2022-12-23T10:42:54.673Z,6.4
2022-12-23T10:44:04.920Z,6.4
2022-12-23T10:45:15.110Z,6.4
2022-12-23T10:46:25.362Z,6.5
2022-12-23T10:47:35.783Z,6.5
2022-12-23T10:48:46.069Z,6.5
2022-12-23T10:49:56.521Z,6.5
2022-12-23T10:51:06.892Z,6.5
2022-12-23T10:52:17.342Z,6.5
2022-12-23T10:53:27.812Z,6.5
2022-12-23T10:54:38.188Z,6.5
2022-12-23T10:55:48.698Z,6.5
2022-12-23T10:56:59.127Z,6.5
2022-12-23T10:58:09.503Z,6.5
2022-12-23T10:59:19.932Z,6.5
2022-12-23T11:00:30.410Z,6.5
2022-12-23T11:01:40.774Z,6.5
2022-12-23T11:02:51.271Z,6.5
2022-12-23T11:05:30.189Z,6.5
2022-12-23T11:06:43.927Z,6.5
2022-12-23T11:07:54.371Z,6.5
2022-12-23T11:09:03.944Z,6.5
2022-12-23T11:10:14.191Z,6.5
2022-12-23T11:11:24.470Z,6.5
2022-12-23T11:12:34.804Z,6.5
2022-12-23T11:13:44.899Z,6.5
2022-12-23T11:14:55.230Z,6.6
2022-12-23T11:16:05.512Z,6.6
2022-12-23T11:17:15.651Z,6.6
2022-12-23T11:18:25.953Z,6.6
2022-12-23T11:19:36.134Z,6.6
2022-12-23T11:20:46.431Z,6.6
2022-12-23T11:21:56.647Z,6.6
2022-12-23T11:23:06.889Z,6.6
2022-12-23T11:24:17.127Z,6.6
2022-12-23T11:25:27.387Z,6.6
2022-12-23T11:26:37.608Z,6.7
2022-12-23T11:27:47.926Z,6.7
2022-12-23T11:28:58.108Z,6.6
2022-12-23T11:30:08.449Z,6.6
2022-12-23T11:31:18.647Z,6.6
2022-12-23T11:32:28.839Z,6.6
2022-12-23T11:33:39.085Z,6.6
2022-12-23T11:34:49.388Z,6.6
2022-12-23T11:35:59.661Z,6.6
2022-12-23T11:37:09.921Z,6.6
2022-12-23T11:38:20.313Z,6.6
2022-12-23T11:39:30.792Z,6.6
2022-12-23T11:40:41.115Z,6.6
2022-12-23T11:41:51.572Z,6.6
2022-12-23T11:43:00.996Z,6.6
2022-12-23T11:44:11.166Z,6.6
2022-12-23T11:45:21.234Z,6.6
2022-12-23T11:46:31.327Z,6.7
2022-12-23T11:48:51.575Z,6.7
2022-12-23T11:50:01.741Z,6.7
2022-12-23T11:51:11.807Z,6.7
2022-12-23T11:52:21.976Z,6.7
2022-12-23T11:53:32.052Z,6.7
2022-12-23T11:54:42.139Z,6.6
2022-12-23T11:55:52.383Z,6.6
2022-12-23T11:57:02.444Z,6.6
2022-12-23T11:58:12.565Z,6.6
2022-12-23T11:59:22.630Z,6.6
2022-12-23T12:00:32.804Z,6.6
2022-12-23T12:01:42.844Z,6.6
2022-12-23T12:02:52.976Z,6.6
2022-12-23T12:04:03.139Z,6.6
2022-12-23T12:05:13.283Z,6.7
2022-12-23T12:06:23.382Z,6.7
2022-12-23T12:07:33.444Z,6.7
2022-12-23T12:08:43.549Z,6.7
2022-12-23T12:09:53.683Z,6.7
2022-12-23T12:11:03.886Z,6.7
2022-12-23T12:12:14.043Z,6.7
2022-12-23T12:13:24.138Z,6.7
2022-12-23T12:14:34.297Z,6.7
2022-12-23T12:15:44.431Z,6.7
2022-12-23T12:16:54.613Z,6.7
2022-12-23T12:18:04.834Z,6.7
2022-12-23T12:19:14.994Z,6.6
2022-12-23T12:20:25.195Z,6.7
2022-12-23T12:21:35.358Z,6.7
2022-12-23T12:22:45.443Z,6.6
2022-12-23T12:23:55.657Z,6.7
2022-12-23T12:25:05.825Z,6.7
2022-12-23T12:26:15.987Z,6.7
2022-12-23T12:27:26.217Z,6.7
2022-12-23T12:28:36.404Z,6.7
2022-12-23T12:29:46.723Z,6.7
2022-12-23T12:30:56.956Z,6.7
2022-12-23T12:32:07.207Z,6.7
2022-12-23T12:33:17.383Z,6.7
2022-12-23T12:34:27.656Z,6.7
2022-12-23T12:35:37.870Z,6.7
2022-12-23T12:36:48.147Z,6.7
2022-12-23T12:37:58.388Z,6.7
2022-12-23T12:39:08.628Z,6.7
2022-12-23T12:40:18.928Z,6.8
2022-12-23T12:41:29.178Z,6.8
2022-12-23T12:42:39.534Z,6.8
2022-12-23T12:44:16.156Z,6.8
2022-12-23T12:45:26.611Z,6.9
2022-12-23T12:46:36.946Z,6.9
2022-12-23T12:47:47.383Z,6.9
2022-12-23T12:48:57.864Z,6.9
2022-12-23T12:50:08.293Z,6.9
2022-12-23T12:51:18.734Z,6.8
2022-12-23T12:52:29.114Z,6.8
2022-12-23T12:53:39.526Z,6.8
2022-12-23T12:54:50.035Z,6.8
2022-12-23T12:56:00.446Z,6.9
2022-12-23T12:57:10.826Z,6.9
2022-12-23T12:59:50.512Z,6.9
2022-12-23T13:01:04.046Z,6.9
2022-12-23T13:02:14.229Z,6.9
2022-12-23T13:03:24.366Z,7
2022-12-23T13:04:34.476Z,7
2022-12-23T13:05:44.639Z,7
2022-12-23T13:06:54.832Z,7
2022-12-23T13:08:04.991Z,7
2022-12-23T13:09:15.195Z,7
2022-12-23T13:10:25.341Z,7
2022-12-23T13:11:35.577Z,6.9
2022-12-23T13:12:45.643Z,6.9
2022-12-23T13:13:55.961Z,6.9
2022-12-23T13:15:05.952Z,6.9
2022-12-23T13:16:16.180Z,6.9
2022-12-23T13:17:26.341Z,6.9
2022-12-23T13:18:36.463Z,6.9
2022-12-23T13:19:46.653Z,6.8
2022-12-23T13:20:56.784Z,6.8
2022-12-23T13:22:06.944Z,6.8
2022-12-23T13:23:17.100Z,6.8
2022-12-23T13:24:27.270Z,6.8
2022-12-23T13:25:37.417Z,6.8
2022-12-23T13:26:47.595Z,6.8
2022-12-23T13:27:57.804Z,6.8
2022-12-23T13:29:07.907Z,6.8
2022-12-23T13:30:18.206Z,6.8
2022-12-23T13:31:28.444Z,6.8
2022-12-23T13:32:38.643Z,6.7
2022-12-23T13:33:48.913Z,6.7
2022-12-23T13:34:59.136Z,6.7
2022-12-23T13:36:09.439Z,6.7
2022-12-23T13:37:19.707Z,6.7
2022-12-23T13:38:29.884Z,6.7
2022-12-23T13:39:40.113Z,6.7
2022-12-23T13:40:50.387Z,6.7
2022-12-23T13:42:00.667Z,6.7
2022-12-23T13:43:10.867Z,6.7
2022-12-23T13:44:21.165Z,6.7
2022-12-23T13:45:31.555Z,6.7
2022-12-23T13:46:41.960Z,6.7
2022-12-23T13:47:52.397Z,6.7
2022-12-23T13:49:02.848Z,6.7
2022-12-23T13:50:13.327Z,6.7
2022-12-23T13:51:23.698Z,6.7
2022-12-23T13:52:34.186Z,6.7
2022-12-23T13:53:44.558Z,6.7
2022-12-23T13:54:55.007Z,6.7
2022-12-23T13:56:04.448Z,6.7
2022-12-23T13:57:14.591Z,6.7
2022-12-23T13:58:24.738Z,6.7
2022-12-23T13:59:34.783Z,6.7
2022-12-23T14:00:44.903Z,6.7
2022-12-23T14:01:55.025Z,6.8
2022-12-23T14:03:05.109Z,6.7
2022-12-23T14:04:15.255Z,6.7
2022-12-23T14:05:25.365Z,6.7
2022-12-23T14:06:35.488Z,6.7
2022-12-23T14:07:45.583Z,6.7
2022-12-23T14:08:55.715Z,6.7
2022-12-23T14:10:05.836Z,6.7
2022-12-23T14:11:16.054Z,6.7
2022-12-23T14:12:26.117Z,6.7
2022-12-23T14:13:36.158Z,6.7
2022-12-23T14:14:46.331Z,6.7
2022-12-23T14:15:56.410Z,6.7
2022-12-23T14:17:06.583Z,6.7
2022-12-23T14:18:16.634Z,6.6
2022-12-23T14:19:26.795Z,6.7
2022-12-23T14:20:36.853Z,6.7
2022-12-23T14:21:46.990Z,6.7
2022-12-23T14:22:57.126Z,6.7
2022-12-23T14:24:07.235Z,6.6
2022-12-23T14:25:17.436Z,6.7
2022-12-23T14:26:27.550Z,6.6
2022-12-23T14:27:37.698Z,6.7
2022-12-23T14:28:47.934Z,6.7
2022-12-23T14:29:58.038Z,6.7
2022-12-23T14:31:08.257Z,6.7
2022-12-23T14:32:18.416Z,6.7
2022-12-23T14:33:28.565Z,6.7
2022-12-23T14:34:38.687Z,6.7
2022-12-23T14:35:48.912Z,6.7
2022-12-23T14:36:59.073Z,6.7
2022-12-23T14:38:09.194Z,6.7
2022-12-23T14:39:19.354Z,6.7
2022-12-23T14:40:29.597Z,6.7
2022-12-23T14:41:39.828Z,6.6
2022-12-23T14:42:50.165Z,6.6
2022-12-23T14:44:00.328Z,6.6
2022-12-23T14:45:10.626Z,6.6
2022-12-23T14:46:20.885Z,6.6
2022-12-23T14:47:31.115Z,6.6
2022-12-23T14:48:41.303Z,6.6
2022-12-23T14:49:51.556Z,6.6
2022-12-23T14:51:01.852Z,6.6
2022-12-23T14:52:12.087Z,6.6
2022-12-23T14:53:22.336Z,6.6
2022-12-23T14:54:32.604Z,6.6
2022-12-23T14:55:42.966Z,6.6
2022-12-23T14:57:19.575Z,6.6
2022-12-23T14:58:29.958Z,6.5
2022-12-23T14:59:40.377Z,6.5
2022-12-23T15:00:50.877Z,6.5
2022-12-23T15:02:01.246Z,6.5
2022-12-23T15:03:11.756Z,6.5
2022-12-23T15:04:22.129Z,6.5
2022-12-23T15:05:32.589Z,6.4
2022-12-23T15:06:42.952Z,6.4
2022-12-23T15:07:53.477Z,6.3
2022-12-23T15:09:03.829Z,6.3
2022-12-23T15:10:14.321Z,6.4
2022-12-23T15:12:52.624Z,6.4
2022-12-23T15:14:06.812Z,6.3
2022-12-23T15:15:20.878Z,6.3
2022-12-23T15:16:30.760Z,6.4
2022-12-23T15:17:40.900Z,6.4
2022-12-23T15:18:51.039Z,6.4
2022-12-23T15:20:01.199Z,6.3
2022-12-23T15:21:11.406Z,6.4
2022-12-23T15:22:21.498Z,6.3
2022-12-23T15:23:31.734Z,6.3
2022-12-23T15:24:41.832Z,6.3
2022-12-23T15:25:52.025Z,6.3
2022-12-23T15:27:02.166Z,6.3
2022-12-23T15:28:12.318Z,6.3
2022-12-23T15:29:22.498Z,6.3
2022-12-23T15:30:32.667Z,6.3
2022-12-23T15:31:42.797Z,6.3
2022-12-23T15:32:53.087Z,6.3
2022-12-23T15:34:03.138Z,6.3
2022-12-23T15:35:13.364Z,6.3
2022-12-23T15:36:23.545Z,6.3
2022-12-23T15:37:33.740Z,6.2
2022-12-23T15:38:43.781Z,6.2
2022-12-23T15:39:54.018Z,6.2
2022-12-23T15:41:04.178Z,6.3
2022-12-23T15:42:14.286Z,6.3
2022-12-23T15:43:24.449Z,6.3
2022-12-23T15:44:34.629Z,6.3
2022-12-23T15:45:44.846Z,6.2
2022-12-23T15:46:55.141Z,6.3
2022-12-23T15:48:05.417Z,6.3
2022-12-23T15:49:15.600Z,6.3
2022-12-23T15:50:25.843Z,6.3
2022-12-23T15:51:36.126Z,6.3
2022-12-23T15:52:46.324Z,6.3
2022-12-23T15:53:56.604Z,6.3
2022-12-23T15:55:06.882Z,6.3
2022-12-23T15:56:17.055Z,6.3
2022-12-23T15:57:27.331Z,6.3
2022-12-23T15:58:37.550Z,6.3
2022-12-23T15:59:47.824Z,6.3
2022-12-23T16:00:58.273Z,6.3
2022-12-23T16:02:08.803Z,6.3
2022-12-23T16:03:19.139Z,6.3
2022-12-23T16:04:29.546Z,6.2
2022-12-23T16:05:39.963Z,6.2
2022-12-23T16:06:50.398Z,6.2
2022-12-23T16:07:59.926Z,6.2
2022-12-23T16:10:20.267Z,6.2
2022-12-23T16:11:30.426Z,6.2
2022-12-23T16:12:40.519Z,6.2
2022-12-23T16:13:50.746Z,6.2
2022-12-23T16:15:00.863Z,6.2
2022-12-23T16:16:11.115Z,6.2
2022-12-23T16:17:21.239Z,6.2
2022-12-23T16:18:31.326Z,6.1
2022-12-23T16:19:41.504Z,6.1
2022-12-23T16:20:51.739Z,6.1
2022-12-23T16:22:01.837Z,6.1
2022-12-23T16:23:12.040Z,6.1
2022-12-23T16:24:22.240Z,6.2
2022-12-23T16:25:32.327Z,6.2
2022-12-23T16:26:42.485Z,6.1
2022-12-23T16:27:52.646Z,6.1
2022-12-23T16:29:02.817Z,6.2
2022-12-23T16:30:12.980Z,6.1
2022-12-23T16:31:23.140Z,6.1
2022-12-23T16:32:33.302Z,6.2
2022-12-23T16:33:43.466Z,6.1
2022-12-23T16:34:53.637Z,6.2
2022-12-23T16:36:03.794Z,6.2
2022-12-23T16:37:14.100Z,6.1
2022-12-23T16:38:24.360Z,6.1
2022-12-23T16:39:34.601Z,6.1
2022-12-23T16:40:44.763Z,6.1
2022-12-23T16:41:55.040Z,6.1
2022-12-23T16:43:05.318Z,6.1
2022-12-23T16:44:15.518Z,6.1
2022-12-23T16:45:25.761Z,6.1
2022-12-23T16:46:36.012Z,6.1
2022-12-23T16:47:46.240Z,6.1